Time;durP1;ratioP1;P1;durP2;ratioP2;P2;SDS_P1;SDS_P2;PMS_P1;PMS_P2;Temp;Humidity;BMP_temperature;BMP_pressure;BME280_temperature;BME280_humidity;BME280_pressure;Samples;Min_cycle;Max_cycle;Signal;HPM_P1;HPM_P2
2021/12/30 00:00:46;;;;;;;112.45;20.48;;;;;;;10.13;100.00;101079.13;5017160;28;20504;-47
2021/12/30 00:03:11;;;;;;;118.95;22.55;;;;;;;10.11;100.00;101078.44;5018561;28;20025;-46
2021/12/30 00:05:38;;;;;;;122.25;23.77;;;;;;;10.11;100.00;101070.44;5017933;28;20876;-51
2021/12/30 00:08:04;;;;;;;109.55;23.25;;;;;;;10.08;100.00;101073.41;5017052;28;20025;-49
2021/12/30 00:10:29;;;;;;;115.53;24.85;;;;;;;10.06;100.00;101081.59;5017984;28;20492;-49
2021/12/30 00:12:55;;;;;;;130.50;23.17;;;;;;;10.04;100.00;101075.53;5018645;28;20398;-51
2021/12/30 00:15:21;;;;;;;130.35;25.02;;;;;;;10.06;100.00;101091.41;5016037;28;20025;-49
2021/12/30 00:17:46;;;;;;;102.45;24.30;;;;;;;10.08;100.00;101095.63;5015860;28;20112;-47
2021/12/30 00:20:12;;;;;;;111.57;25.58;;;;;;;10.11;100.00;101096.31;5015618;28;20025;-50
2021/12/30 00:22:37;;;;;;;100.15;22.38;;;;;;;10.11;100.00;101085.63;5015053;28;20532;-50
2021/12/30 00:25:05;;;;;;;103.85;21.42;;;;;;;10.09;100.00;101097.28;5015606;28;20539;-46
2021/12/30 00:27:30;;;;;;;124.30;22.23;;;;;;;10.12;100.00;101092.66;5016061;28;20396;-46
2021/12/30 00:29:56;;;;;;;115.38;20.48;;;;;;;10.15;100.00;101095.00;5017561;28;20403;-46
2021/12/30 00:32:21;;;;;;;107.03;22.15;;;;;;;10.18;100.00;101090.22;5017051;28;20721;-50
2021/12/30 00:34:47;;;;;;;109.22;19.77;;;;;;;10.22;100.00;101096.09;5017554;28;20029;-44
2021/12/30 00:37:12;;;;;;;103.93;19.27;;;;;;;10.26;100.00;101098.28;5016920;28;20350;-48
2021/12/30 00:39:37;;;;;;;102.15;20.02;;;;;;;10.30;100.00;101106.81;5016103;28;20031;-49
2021/12/30 00:42:03;;;;;;;115.30;20.17;;;;;;;10.34;100.00;101100.22;5017498;28;20108;-46
2021/12/30 00:44:28;;;;;;;122.80;21.38;;;;;;;10.37;100.00;101105.25;5020428;28;20449;-47
2021/12/30 00:46:53;;;;;;;122.40;21.23;;;;;;;10.40;100.00;101115.63;5025464;28;20044;-45
2021/12/30 00:49:19;;;;;;;107.40;19.50;;;;;;;10.38;100.00;101117.59;5021183;28;20041;-46
2021/12/30 00:51:44;;;;;;;107.18;18.88;;;;;;;10.39;100.00;101105.94;5015935;28;20579;-47
2021/12/30 00:54:10;;;;;;;129.98;20.17;;;;;;;10.38;100.00;101104.25;5015662;28;20439;-45
2021/12/30 00:56:36;;;;;;;122.47;18.58;;;;;;;10.40;100.00;101112.09;5016765;28;20120;-45
2021/12/30 00:59:01;;;;;;;109.57;18.98;;;;;;;10.40;100.00;101112.97;5024014;28;20053;-46
2021/12/30 01:01:26;;;;;;;96.75;17.80;;;;;;;10.42;100.00;101107.44;5017172;28;20072;-47
2021/12/30 01:03:52;;;;;;;109.75;17.60;;;;;;;10.43;100.00;101119.81;5017355;28;20032;-49
2021/12/30 01:06:17;;;;;;;105.78;19.10;;;;;;;10.42;100.00;101113.66;5016487;28;20087;-45
2021/12/30 01:08:43;;;;;;;107.18;17.77;;;;;;;10.42;100.00;101107.44;5015972;28;20055;-47
2021/12/30 01:11:09;;;;;;;101.85;17.58;;;;;;;10.44;100.00;101111.66;5017500;28;20036;-50
2021/12/30 01:13:40;;;;;;;111.00;17.58;;;;;;;10.45;100.00;101107.16;5015885;28;20520;-48
2021/12/30 01:16:15;;;;;;;106.63;18.77;;;;;;;10.46;100.00;101111.50;5017175;28;20083;-46
2021/12/30 01:18:56;;;;;;;102.03;18.00;;;;;;;10.48;100.00;101116.69;5015622;28;20205;-44
2021/12/30 01:21:24;;;;;;;110.28;18.98;;;;;;;10.52;100.00;101126.06;5016336;28;20021;-48
2021/12/30 01:23:50;;;;;;;104.95;19.02;;;;;;;10.52;100.00;101118.91;5015662;28;20653;-45
2021/12/30 01:26:15;;;;;;;106.03;18.33;;;;;;;10.54;100.00;101116.06;5016014;28;20406;-48
2021/12/30 01:28:41;;;;;;;122.18;18.73;;;;;;;10.53;100.00;101122.41;5015920;28;20036;-45
2021/12/30 01:31:07;;;;;;;118.20;18.70;;;;;;;10.54;100.00;101124.94;5016743;28;20067;-48
2021/12/30 01:33:32;;;;;;;105.05;16.50;;;;;;;10.57;100.00;101132.66;5015722;28;20033;-47
2021/12/30 01:35:58;;;;;;;112.60;17.85;;;;;;;10.61;100.00;101125.16;5014668;28;20465;-47
2021/12/30 01:38:24;;;;;;;109.15;17.92;;;;;;;10.66;100.00;101124.66;5015513;28;20053;-47
2021/12/30 01:40:53;;;;;;;101.18;17.20;;;;;;;10.68;100.00;101120.88;5014989;28;20512;-47
2021/12/30 01:43:18;;;;;;;97.07;15.80;;;;;;;10.69;100.00;101117.19;5016501;28;20096;-46
2021/12/30 01:45:45;;;;;;;119.43;17.75;;;;;;;10.76;100.00;101118.25;5016199;28;20029;-46
2021/12/30 01:48:12;;;;;;;99.75;16.35;;;;;;;10.83;100.00;101108.63;5016474;28;20041;-49
2021/12/30 01:50:39;;;;;;;106.97;17.75;;;;;;;10.90;100.00;101108.00;5016065;28;20021;-48
2021/12/30 01:53:05;;;;;;;96.80;16.63;;;;;;;10.94;100.00;101107.50;5014990;28;20517;-45
2021/12/30 01:55:32;;;;;;;90.25;17.45;;;;;;;10.99;100.00;101110.56;5015980;28;20025;-46
2021/12/30 01:57:59;;;;;;;96.60;17.75;;;;;;;11.02;100.00;101112.09;5016088;28;20044;-49
2021/12/30 02:00:26;;;;;;;103.82;19.00;;;;;;;11.07;100.00;101104.44;5016468;28;20025;-47
2021/12/30 02:02:51;;;;;;;103.10;19.23;;;;;;;11.10;100.00;101092.56;5015783;28;20746;-45
2021/12/30 02:05:17;;;;;;;110.40;19.42;;;;;;;11.13;100.00;101093.13;5016285;28;20120;-48
2021/12/30 02:07:43;;;;;;;102.15;20.33;;;;;;;11.17;100.00;101102.50;5013430;28;20167;-45
2021/12/30 02:10:10;;;;;;;108.30;21.98;;;;;;;11.20;100.00;101101.31;5016499;28;20435;-50
2021/12/30 02:12:37;;;;;;;99.82;19.95;;;;;;;11.23;100.00;101110.88;5015589;28;20029;-49
2021/12/30 02:15:06;;;;;;;99.05;20.30;;;;;;;11.26;100.00;101114.06;5017018;28;20102;-49
2021/12/30 02:17:31;;;;;;;118.53;22.55;;;;;;;11.26;100.00;101132.78;5015365;28;20029;-47
2021/12/30 02:19:59;;;;;;;103.35;22.30;;;;;;;11.26;100.00;101132.78;5015553;28;20426;-50
2021/12/30 02:22:24;;;;;;;101.45;21.27;;;;;;;11.25;100.00;101132.94;5013391;28;20175;-45
2021/12/30 02:24:50;;;;;;;108.90;22.58;;;;;;;11.26;100.00;101132.78;5014805;28;20561;-48
2021/12/30 02:27:16;;;;;;;111.25;21.00;;;;;;;11.31;100.00;101133.13;5014859;28;20091;-47
2021/12/30 02:29:41;;;;;;;108.45;22.95;;;;;;;11.32;100.00;101139.31;5015468;28;20239;-49
2021/12/30 02:32:07;;;;;;;105.68;22.42;;;;;;;11.33;100.00;101127.63;5015854;28;20021;-46
2021/12/30 02:34:32;;;;;;;108.53;22.08;;;;;;;11.35;100.00;101130.97;5015906;28;20060;-46
2021/12/30 02:36:58;;;;;;;111.30;22.60;;;;;;;11.35;100.00;101136.31;5015566;28;20041;-46
2021/12/30 02:39:24;;;;;;;121.85;22.65;;;;;;;11.33;100.00;101122.28;5015791;28;20113;-49
2021/12/30 02:41:50;;;;;;;95.22;22.50;;;;;;;11.33;100.00;101122.28;5015979;28;20156;-47
2021/12/30 02:44:18;;;;;;;106.53;22.73;;;;;;;11.36;100.00;101130.00;5018204;28;20076;-47
2021/12/30 02:46:44;;;;;;;104.50;22.40;;;;;;;11.37;100.00;101131.66;5017909;28;20560;-46
2021/12/30 02:49:09;;;;;;;105.50;23.42;;;;;;;11.39;100.00;101129.69;5020011;28;20025;-47
2021/12/30 02:51:35;;;;;;;103.20;22.45;;;;;;;11.40;100.00;101128.66;5018613;28;20021;-45
2021/12/30 02:54:01;;;;;;;85.22;22.95;;;;;;;11.42;100.00;101133.84;5018785;28;20040;-50
2021/12/30 02:56:27;;;;;;;101.35;22.65;;;;;;;11.40;100.00;101134.00;5019351;28;20029;-46
2021/12/30 02:58:53;;;;;;;91.13;22.08;;;;;;;11.41;100.00;101129.53;5018535;28;20033;-48
2021/12/30 03:01:27;;;;;;;90.78;21.48;;;;;;;11.39;100.00;101137.69;5019748;28;20083;-50
2021/12/30 03:03:54;;;;;;;107.22;23.08;;;;;;;11.40;100.00;101139.34;5019380;28;20079;-47
2021/12/30 03:06:20;;;;;;;95.95;24.00;;;;;;;11.37;100.00;101135.19;5017030;28;20029;-46
2021/12/30 03:08:48;;;;;;;90.97;21.65;;;;;;;11.39;100.00;101137.69;5017605;28;20026;-47
2021/12/30 03:11:14;;;;;;;101.38;22.90;;;;;;;11.38;100.00;101149.38;5018921;28;20036;-48
2021/12/30 03:13:42;;;;;;;90.68;22.67;;;;;;;11.37;100.00;101148.56;5017429;28;20029;-48
2021/12/30 03:16:14;;;;;;;102.88;22.55;;;;;;;11.37;100.00;101147.69;5019453;28;20084;-48
2021/12/30 03:18:41;;;;;;;88.57;21.45;;;;;;;11.36;100.00;101149.53;5018447;28;20040;-47
2021/12/30 03:21:08;;;;;;;71.60;21.02;;;;;;;11.33;100.00;101155.19;5019344;28;20545;-48
2021/12/30 03:23:34;;;;;;;85.72;20.77;;;;;;;11.32;100.00;101153.53;4999609;28;20022;-47
2021/12/30 03:26:00;;;;;;;81.55;19.35;;;;;;;11.30;100.00;101146.66;5018233;28;20124;-46
2021/12/30 03:28:26;;;;;;;83.32;20.95;;;;;;;11.29;100.00;101151.19;5019051;28;20030;-47
2021/12/30 03:30:51;;;;;;;70.80;18.67;;;;;;;11.30;100.00;101146.66;5018499;28;20032;-46
2021/12/30 03:33:20;;;;;;;73.88;19.10;;;;;;;11.26;100.00;101153.34;5017915;28;20266;-49
2021/12/30 03:35:46;;;;;;;76.18;19.77;;;;;;;11.25;100.00;101154.31;5018272;28;20034;-48
2021/12/30 03:38:11;;;;;;;70.05;18.98;;;;;;;11.26;100.00;101145.31;5017626;28;20069;-49
2021/12/30 03:40:36;;;;;;;82.35;20.67;;;;;;;11.29;100.00;101150.34;5018571;28;20014;-50
2021/12/30 03:43:02;;;;;;;72.00;20.02;;;;;;;11.28;100.00;101148.66;5017094;28;20052;-46
2021/12/30 03:45:28;;;;;;;58.28;20.73;;;;;;;11.26;100.00;101151.50;5017991;28;20443;-48
2021/12/30 03:47:54;;;;;;;76.93;22.63;;;;;;;11.23;100.00;101145.63;5018043;28;20109;-46
2021/12/30 03:50:23;;;;;;;64.45;21.60;;;;;;;11.26;100.00;101146.13;5017693;28;20029;-49
2021/12/30 03:52:53;;;;;;;76.22;25.05;;;;;;;11.32;100.00;101144.66;5016650;28;20029;-49
2021/12/30 03:55:20;;;;;;;70.60;21.52;;;;;;;11.30;100.00;101141.31;5017141;28;20329;-49
2021/12/30 03:57:46;;;;;;;61.08;20.20;;;;;;;11.30;100.00;101128.81;5018104;28;20192;-48
2021/12/30 04:00:13;;;;;;;64.88;19.25;;;;;;;11.34;100.00;101138.16;5018707;28;20103;-46
2021/12/30 04:02:39;;;;;;;67.50;20.08;;;;;;;11.37;100.00;101135.19;5017352;28;20044;-46
2021/12/30 04:05:05;;;;;;;64.75;21.88;;;;;;;11.38;100.00;101130.66;5018015;28;20017;-48
2021/12/30 04:07:30;;;;;;;65.32;21.77;;;;;;;11.39;100.00;101140.38;5016123;28;20049;-46
2021/12/30 04:09:55;;;;;;;60.25;20.85;;;;;;;11.42;100.00;101145.38;5018359;28;20441;-46
2021/12/30 04:12:21;;;;;;;69.57;21.88;;;;;;;11.44;100.00;101146.09;5015486;28;20029;-48
2021/12/30 04:14:46;;;;;;;71.60;22.23;;;;;;;11.48;100.00;101147.44;5016116;28;20041;-49
2021/12/30 04:17:12;;;;;;;67.07;22.27;;;;;;;11.49;100.00;101150.94;5017519;28;20025;-48
2021/12/30 04:19:37;;;;;;;69.38;23.83;;;;;;;11.49;100.00;101161.63;5017601;28;20029;-49
2021/12/30 04:22:03;;;;;;;84.75;25.13;;;;;;;11.53;100.00;101160.34;5016347;28;20087;-48
2021/12/30 04:24:28;;;;;;;83.10;27.50;;;;;;;11.58;100.00;101174.06;5017055;28;20383;-51
2021/12/30 04:26:54;;;;;;;101.38;30.83;;;;;;;11.62;100.00;101163.88;5017760;28;20087;-47
2021/12/30 04:29:20;;;;;;;120.75;36.33;;;;;;;11.67;100.00;101169.59;5017350;28;20272;-47
2021/12/30 04:31:46;;;;;;;105.53;33.83;;;;;;;11.68;100.00;101169.44;5016962;28;20184;-49
2021/12/30 04:34:12;;;;;;;121.60;38.10;;;;;;;11.72;100.00;101180.66;5017703;28;20037;-46
2021/12/30 04:36:37;;;;;;;108.38;35.65;;;;;;;11.71;100.00;101168.25;5016023;28;20025;-49
2021/12/30 04:39:03;;;;;;;98.55;31.20;;;;;;;11.80;100.00;101164.63;5016747;28;20408;-49
2021/12/30 04:41:29;;;;;;;108.18;36.50;;;;;;;11.85;100.00;101170.34;5016976;28;20021;-48
2021/12/30 04:43:54;;;;;;;106.93;35.17;;;;;;;11.86;100.00;101168.50;5018042;28;20029;-46
2021/12/30 04:46:20;;;;;;;97.63;32.53;;;;;;;11.82;100.00;101167.97;5017128;28;20033;-49
2021/12/30 04:48:47;;;;;;;106.72;36.13;;;;;;;11.87;100.00;101173.69;5016666;28;20095;-47
2021/12/30 04:51:13;;;;;;;95.32;33.63;;;;;;;11.91;100.00;101176.91;5016977;28;20139;-48
2021/12/30 04:53:38;;;;;;;94.30;33.80;;;;;;;11.90;100.00;101178.72;5014512;28;20352;-46
2021/12/30 04:56:04;;;;;;;97.15;31.67;;;;;;;11.91;100.00;101171.56;5017284;28;20033;-49
2021/12/30 04:58:29;;;;;;;88.95;32.15;;;;;;;11.91;100.00;101175.09;5016775;28;20059;-46
2021/12/30 05:00:55;;;;;;;87.88;31.27;;;;;;;11.96;100.00;101171.91;5016993;28;20051;-49
2021/12/30 05:03:21;;;;;;;78.50;29.45;;;;;;;11.97;100.00;101173.59;5016546;28;20687;-46
2021/12/30 05:05:49;;;;;;;78.65;29.45;;;;;;;12.00;100.00;101178.63;5016441;28;20029;-51
2021/12/30 05:08:20;;;;;;;68.60;27.17;;;;;;;12.01;100.00;101174.94;5015696;28;20422;-46
2021/12/30 05:10:45;;;;;;;63.63;24.88;;;;;;;12.02;100.00;101170.44;5016669;28;20155;-46
2021/12/30 05:13:11;;;;;;;59.65;23.95;;;;;;;12.01;100.00;101174.94;5016868;28;20452;-46
2021/12/30 05:15:39;;;;;;;52.50;22.00;;;;;;;12.06;100.00;101174.44;5016502;28;20032;-47
2021/12/30 05:18:07;;;;;;;61.05;23.40;;;;;;;12.05;100.00;101181.66;5016744;28;20090;-47
2021/12/30 05:20:32;;;;;;;59.05;24.08;;;;;;;12.07;100.00;101179.66;5016074;28;20029;-50
2021/12/30 05:22:58;;;;;;;55.45;21.90;;;;;;;12.07;100.00;101178.81;5016326;28;20048;-50
2021/12/30 05:25:24;;;;;;;47.75;20.30;;;;;;;12.10;100.00;101186.50;5017283;28;20436;-49
2021/12/30 05:27:50;;;;;;;45.33;22.10;;;;;;;12.12;100.00;101198.75;5016446;28;20029;-47
2021/12/30 05:30:18;;;;;;;40.95;21.00;;;;;;;12.17;100.00;101200.06;5017080;28;20029;-49
2021/12/30 05:32:44;;;;;;;39.95;20.13;;;;;;;12.19;100.00;101203.44;5016513;28;20458;-46
2021/12/30 05:35:11;;;;;;;37.35;20.02;;;;;;;12.23;100.00;101215.50;5017351;28;20734;-50
2021/12/30 05:37:37;;;;;;;36.50;21.52;;;;;;;12.30;100.00;101198.63;5013610;28;20042;-48
2021/12/30 05:40:05;;;;;;;37.10;19.65;;;;;;;12.30;100.00;101206.66;5017050;28;20451;-48
2021/12/30 05:42:30;;;;;;;31.35;18.55;;;;;;;12.33;100.00;101229.59;5016048;28;20781;-48
2021/12/30 05:44:55;;;;;;;28.08;17.52;;;;;;;12.33;100.00;101232.28;5016827;28;20080;-50
2021/12/30 05:47:21;;;;;;;29.42;16.67;;;;;;;12.36;100.00;101220.41;5016270;28;20033;-47
2021/12/30 05:49:47;;;;;;;25.77;15.32;;;;;;;12.36;100.00;101226.59;5017062;28;20036;-47
2021/12/30 05:52:13;;;;;;;24.50;15.50;;;;;;;12.38;100.00;101229.09;5015706;28;20017;-47
2021/12/30 05:54:41;;;;;;;22.45;15.20;;;;;;;12.40;100.00;101221.75;5016806;28;20537;-50
2021/12/30 05:57:06;;;;;;;22.35;12.85;;;;;;;12.39;100.00;101228.09;5016917;28;21114;-46
2021/12/30 05:59:32;;;;;;;25.13;12.63;;;;;;;12.38;100.00;101229.09;5015501;28;20025;-50
2021/12/30 06:01:57;;;;;;;19.77;12.80;;;;;;;12.40;100.00;101225.25;5016494;28;20382;-49
2021/12/30 06:04:22;;;;;;;21.48;12.20;;;;;;;12.38;100.00;101226.44;5016816;28;20040;-46
2021/12/30 06:06:48;;;;;;;21.77;11.80;;;;;;;12.42;100.00;101236.66;5015282;28;20025;-46
2021/12/30 06:09:13;;;;;;;20.35;11.10;;;;;;;12.41;100.00;101221.59;5016327;28;20092;-47
2021/12/30 06:11:38;;;;;;;20.15;10.93;;;;;;;12.39;100.00;101223.59;5015477;28;20489;-48
2021/12/30 06:14:04;;;;;;;17.73;8.85;;;;;;;12.40;100.00;101222.56;5016947;28;20038;-49
2021/12/30 06:16:29;;;;;;;18.58;8.93;;;;;;;12.42;100.00;101236.66;5015877;28;20075;-49
2021/12/30 06:18:57;;;;;;;18.85;9.32;;;;;;;12.40;100.00;101233.28;5019219;28;20033;-47
2021/12/30 06:21:22;;;;;;;17.27;9.90;;;;;;;12.43;100.00;101237.50;5020308;28;20021;-50
2021/12/30 06:23:47;;;;;;;21.27;10.10;;;;;;;12.43;100.00;101237.50;5019038;28;20071;-51
2021/12/30 06:26:13;;;;;;;18.95;9.32;;;;;;;12.43;100.00;101226.78;5019608;28;20277;-48
2021/12/30 06:28:38;;;;;;;17.08;8.68;;;;;;;12.47;100.00;101238.81;5019739;28;20440;-48
2021/12/30 06:31:03;;;;;;;18.92;9.88;;;;;;;12.43;100.00;101240.16;5020323;28;20091;-51
2021/12/30 06:33:28;;;;;;;16.85;9.13;;;;;;;12.46;100.00;101229.13;5019053;28;20347;-45
2021/12/30 06:35:54;;;;;;;18.83;8.27;;;;;;;12.50;100.00;101230.47;5019915;28;20044;-50
2021/12/30 06:38:19;;;;;;;15.98;8.23;;;;;;;12.51;100.00;101234.84;5018191;28;20057;-49
2021/12/30 06:40:44;;;;;;;16.40;8.13;;;;;;;12.54;100.00;101237.16;5019449;28;20332;-49
2021/12/30 06:43:10;;;;;;;13.40;8.35;;;;;;;12.59;100.00;101242.91;5020019;28;20657;-49
2021/12/30 06:45:35;;;;;;;14.48;8.57;;;;;;;12.61;100.00;101243.56;5019314;28;20029;-50
2021/12/30 06:48:00;;;;;;;15.52;8.70;;;;;;;12.63;100.00;101251.44;5019533;28;20076;-47
2021/12/30 06:50:31;;;;;;;16.58;9.75;;;;;;;12.65;100.00;101254.78;5020229;28;20025;-47
2021/12/30 06:52:56;;;;;;;16.60;8.83;;;;;;;12.66;100.00;101249.25;5018820;28;20477;-45
2021/12/30 06:55:21;;;;;;;14.80;9.43;;;;;;;12.68;100.00;101252.63;5019484;28;20318;-47
2021/12/30 06:57:47;;;;;;;14.70;9.70;;;;;;;12.71;100.00;101261.31;5019376;28;20481;-47
2021/12/30 07:00:13;;;;;;;15.20;8.27;;;;;;;12.73;100.00;101260.16;5019891;28;20037;-49
2021/12/30 07:02:42;;;;;;;14.93;8.93;;;;;;;12.75;100.00;101276.91;5018302;28;20640;-50
2021/12/30 07:05:07;;;;;;;17.65;11.00;;;;;;;12.74;100.00;101277.06;5019434;28;20080;-47
2021/12/30 07:07:33;;;;;;;16.98;11.35;;;;;;;12.77;100.00;101274.06;5017961;28;20037;-49
2021/12/30 07:09:58;;;;;;;17.52;9.98;;;;;;;12.79;100.00;101277.41;5019625;28;20036;-50
2021/12/30 07:12:24;;;;;;;21.02;12.07;;;;;;;12.80;100.00;101276.44;5019761;28;20068;-49
2021/12/30 07:14:49;;;;;;;23.10;12.63;;;;;;;12.77;100.00;101284.78;5019253;28;20497;-49
2021/12/30 07:17:14;;;;;;;22.23;14.30;;;;;;;12.74;100.00;101280.59;5019502;28;20028;-49
2021/12/30 07:19:40;;;;;;;23.50;13.75;;;;;;;12.76;100.00;101289.28;5017577;28;20450;-51
2021/12/30 07:22:05;;;;;;;26.60;15.80;;;;;;;12.76;100.00;101285.78;5017963;28;20049;-49
2021/12/30 07:24:30;;;;;;;27.55;15.48;;;;;;;12.78;100.00;101289.13;5019106;28;20397;-48
2021/12/30 07:26:56;;;;;;;28.95;15.98;;;;;;;12.75;100.00;101294.84;5019482;28;20056;-51
2021/12/30 07:29:21;;;;;;;29.35;15.88;;;;;;;12.72;100.00;101289.81;5018377;28;20524;-49
2021/12/30 07:31:47;;;;;;;31.02;17.38;;;;;;;12.73;100.00;101297.69;5016574;28;20424;-49
2021/12/30 07:34:12;;;;;;;28.85;15.25;;;;;;;12.71;100.00;101304.19;5018885;28;20022;-48
2021/12/30 07:36:37;;;;;;;30.83;15.88;;;;;;;12.74;100.00;101303.88;5016916;28;20029;-49
2021/12/30 07:39:04;;;;;;;28.77;14.65;;;;;;;12.78;100.00;101303.41;5019035;28;20438;-49
2021/12/30 07:41:29;;;;;;;29.85;15.30;;;;;;;12.81;100.00;101304.88;5018413;28;20058;-50
2021/12/30 07:43:55;;;;;;;33.30;15.57;;;;;;;12.81;100.00;101312.94;5019039;28;20017;-50
2021/12/30 07:46:20;;;;;;;25.77;14.50;;;;;;;12.80;100.00;101304.06;5018642;28;20036;-50
2021/12/30 07:48:45;;;;;;;28.75;14.40;;;;;;;12.85;100.00;101314.31;5017691;28;20080;-50
2021/12/30 07:51:10;;;;;;;30.42;14.65;;;;;;;12.86;100.00;101321.31;5018247;28;20040;-48
2021/12/30 07:53:37;;;;;;;25.90;15.20;;;;;;;12.85;100.00;101308.94;5016981;28;20474;-47
2021/12/30 07:56:02;;;;;;;27.38;13.98;;;;;;;12.83;100.00;101311.78;5018567;28;20029;-48
2021/12/30 07:58:29;;;;;;;27.55;14.07;;;;;;;12.85;100.00;101314.31;5017478;28;20402;-49
2021/12/30 08:00:54;;;;;;;29.00;15.02;;;;;;;12.83;100.00;101317.13;5018532;28;20032;-48
2021/12/30 08:03:19;;;;;;;28.92;16.20;;;;;;;12.82;100.00;101312.78;5017814;28;20021;-48
2021/12/30 08:05:45;;;;;;;39.20;15.68;;;;;;;12.81;100.00;101312.94;5018134;28;20284;-51
2021/12/30 08:08:11;;;;;;;27.67;16.98;;;;;;;12.75;100.00;101311.75;5017306;28;20126;-48
2021/12/30 08:10:36;;;;;;;31.23;16.17;;;;;;;12.69;100.00;101304.34;5016660;28;20025;-51
2021/12/30 08:13:02;;;;;;;29.40;17.40;;;;;;;12.72;100.00;101324.66;5018043;28;20039;-48
2021/12/30 08:15:27;;;;;;;28.95;17.25;;;;;;;12.75;100.00;101330.53;5026313;28;20033;-51
2021/12/30 08:17:54;;;;;;;33.70;17.85;;;;;;;12.74;100.00;101339.53;5037636;28;20029;-49
2021/12/30 08:20:22;;;;;;;34.92;18.92;;;;;;;12.73;100.00;101339.72;5038182;28;20025;-49
2021/12/30 08:22:48;;;;;;;36.58;18.67;;;;;;;12.77;100.00;101351.81;5026207;28;20651;-50
2021/12/30 08:25:14;;;;;;;36.20;18.52;;;;;;;12.79;100.00;101350.63;5027036;28;20020;-51
2021/12/30 08:27:40;;;;;;;36.85;19.35;;;;;;;12.80;100.00;101348.78;5026613;28;20021;-50
2021/12/30 08:30:09;;;;;;;37.65;20.35;;;;;;;12.80;100.00;101352.31;5018372;28;20052;-50
2021/12/30 08:32:34;;;;;;;37.13;19.88;;;;;;;12.86;100.00;101350.81;5027028;28;20525;-50
2021/12/30 08:35:00;;;;;;;35.00;18.75;;;;;;;12.84;100.00;101347.44;5018306;28;20026;-46
2021/12/30 08:37:26;;;;;;;32.78;19.40;;;;;;;12.85;100.00;101354.50;5031303;28;20056;-46
2021/12/30 08:39:51;;;;;;;37.83;20.70;;;;;;;12.85;100.00;101349.97;5032180;28;20021;-52
2021/12/30 08:42:20;;;;;;;41.45;19.23;;;;;;;12.87;100.00;101363.22;5036821;28;20071;-47
2021/12/30 08:44:46;;;;;;;39.22;20.35;;;;;;;12.89;100.00;101353.16;5037442;28;20013;-50
2021/12/30 08:47:12;;;;;;;36.85;20.20;;;;;;;12.91;100.00;101364.56;5036969;28;20021;-50
2021/12/30 08:49:41;;;;;;;41.05;20.05;;;;;;;12.93;100.00;101353.66;5036690;28;20558;-51
2021/12/30 08:52:08;;;;;;;40.78;21.13;;;;;;;12.93;100.00;101373.28;5035915;28;20017;-47
2021/12/30 08:54:35;;;;;;;40.85;21.23;;;;;;;12.97;100.00;101363.91;5033841;28;20496;-50
2021/12/30 08:57:00;;;;;;;40.85;22.50;;;;;;;13.02;100.00;101377.66;5037580;28;20028;-51
2021/12/30 08:59:25;;;;;;;37.45;19.63;;;;;;;13.03;100.00;101387.41;5037767;28;20029;-51
2021/12/30 09:01:51;;;;;;;35.38;19.67;;;;;;;13.06;100.00;101386.22;5022747;28;20476;-49
2021/12/30 09:04:16;;;;;;;33.92;20.20;;;;;;;13.07;100.00;101382.53;5017202;28;20017;-51
2021/12/30 09:06:41;;;;;;;38.25;19.73;;;;;;;13.07;100.00;101374.50;5015737;28;20061;-51
2021/12/30 09:09:06;;;;;;;33.45;18.67;;;;;;;13.07;100.00;101385.22;5021749;28;20033;-50
2021/12/30 09:11:32;;;;;;;30.77;17.40;;;;;;;13.12;100.00;101380.22;5033679;28;20035;-50
2021/12/30 09:13:57;;;;;;;32.15;16.98;;;;;;;13.13;100.00;101392.59;5037468;28;20381;-49
2021/12/30 09:16:22;;;;;;;31.67;17.52;;;;;;;13.18;100.00;101390.25;5025446;28;20037;-51
2021/12/30 09:18:47;;;;;;;31.25;16.50;;;;;;;13.18;100.00;101387.56;5034459;28;20356;-49
2021/12/30 09:21:13;;;;;;;31.83;14.80;;;;;;;13.21;100.00;101402.50;5029856;28;20301;-50
2021/12/30 09:23:38;;;;;;;34.78;15.68;;;;;;;13.25;100.00;101396.66;5021243;28;20588;-51
2021/12/30 09:26:03;;;;;;;33.42;14.65;;;;;;;13.30;100.00;101385.41;5017508;28;20021;-51
2021/12/30 09:28:29;;;;;;;29.00;14.88;;;;;;;13.35;100.00;101404.56;5016977;28;20144;-49
2021/12/30 09:30:54;;;;;;;29.23;15.85;;;;;;;13.37;100.00;101391.84;5017253;28;20029;-51
2021/12/30 09:33:19;;;;;;;29.00;15.07;;;;;;;13.41;100.00;101408.44;5016852;28;20052;-49
2021/12/30 09:35:47;;;;;;;38.83;15.20;;;;;;;13.42;100.00;101404.75;5015984;28;20272;-49
2021/12/30 09:38:14;;;;;;;34.60;14.00;;;;;;;13.42;100.00;101410.97;5015108;28;20461;-51
2021/12/30 09:40:39;;;;;;;35.90;14.00;;;;;;;13.43;100.00;101401.91;5014775;28;20233;-50
2021/12/30 09:43:04;;;;;;;35.90;13.10;;;;;;;13.46;100.00;101421.34;5017054;28;20029;-51
2021/12/30 09:45:36;;;;;;;30.83;11.93;;;;;;;13.46;100.00;101426.72;5016280;28;20013;-48
2021/12/30 09:48:04;;;;;;;31.27;12.43;;;;;;;13.46;100.00;101419.53;5016318;28;20482;-51
2021/12/30 09:50:34;;;;;;;27.00;12.20;;;;;;;13.46;100.00;101438.31;5016481;28;20025;-52
2021/12/30 09:53:00;;;;;;;30.48;10.32;;;;;;;13.48;100.00;101427.41;5016982;28;20036;-48
2021/12/30 09:55:26;;;;;;;24.58;9.55;;;;;;;13.47;100.00;101421.19;5021087;28;20354;-49
2021/12/30 09:57:55;;;;;;;30.02;9.27;;;;;;;13.52;100.00;101426.88;5019476;28;20502;-48
2021/12/30 10:00:21;;;;;;;30.17;9.48;;;;;;;13.54;100.00;101445.50;5021092;28;20060;-48
2021/12/30 10:02:47;;;;;;;35.75;9.48;;;;;;;13.53;100.00;101423.22;5019526;28;20091;-49
2021/12/30 10:05:18;;;;;;;34.90;9.10;;;;;;;13.55;100.00;101415.81;5020492;28;20117;-49
2021/12/30 10:07:44;;;;;;;24.30;8.25;;;;;;;13.58;100.00;101420.03;5018972;28;20115;-50
2021/12/30 10:10:30;;;;;;;34.80;8.18;;;;;;;13.61;100.00;101419.69;5020921;28;20084;-51
2021/12/30 10:12:57;;;;;;;35.38;8.43;;;;;;;13.62;100.00;101418.69;5018666;28;20021;-48
2021/12/30 10:15:25;;;;;;;29.10;8.25;;;;;;;13.64;100.00;101430.09;5020566;28;20495;-50
2021/12/30 10:17:57;;;;;;;28.17;7.90;;;;;;;13.70;100.00;101436.66;5026062;28;20347;-50
2021/12/30 10:20:32;;;;;;;24.55;7.30;;;;;;;13.75;100.00;101431.63;5024381;28;20025;-50
2021/12/30 10:23:19;;;;;;;31.60;8.60;;;;;;;13.73;100.00;101438.97;5020333;28;20025;-51
2021/12/30 10:25:54;;;;;;;33.15;8.35;;;;;;;13.71;100.00;101447.19;5019430;28;20075;-51
2021/12/30 10:28:33;;;;;;;23.20;7.40;;;;;;;13.66;100.00;101443.34;5020125;28;20029;-48
2021/12/30 10:31:14;;;;;;;31.17;7.65;;;;;;;13.62;100.00;101442.84;5023657;28;20120;-50
2021/12/30 10:33:59;;;;;;;39.63;8.55;;;;;;;13.60;100.00;101443.00;5021963;28;20114;-50
2021/12/30 10:36:45;;;;;;;29.13;8.75;;;;;;;13.56;100.00;101440.81;5019906;28;20072;-51
2021/12/30 10:39:25;;;;;;;36.00;9.30;;;;;;;13.53;100.00;101435.81;5019744;28;20040;-47
2021/12/30 10:41:53;;;;;;;26.48;8.95;;;;;;;13.55;100.00;101433.78;5019140;28;20410;-50
2021/12/30 10:44:20;;;;;;;30.85;9.48;;;;;;;13.55;100.00;101429.25;5019581;28;20268;-50
2021/12/30 10:46:46;;;;;;;30.90;8.13;;;;;;;13.60;100.00;101434.13;5017452;28;20496;-47
2021/12/30 10:49:24;;;;;;;33.78;9.18;;;;;;;13.58;100.00;101436.16;5024338;28;20175;-50
2021/12/30 10:51:52;;;;;;;29.63;8.98;;;;;;;13.60;100.00;101434.13;5018397;28;20053;-47
2021/12/30 10:54:22;;;;;;;33.78;9.52;;;;;;;13.62;100.00;101442.84;5018919;28;20162;-48
2021/12/30 10:56:57;;;;;;;30.25;7.95;;;;;;;13.67;100.00;101431.63;5018414;28;20167;-51
2021/12/30 10:59:27;;;;;;;43.97;8.82;;;;;;;13.72;100.00;101442.69;5019251;28;20025;-52